createdAt,value
2018-06-28T00:00:20.346Z,47.80
2018-06-28T00:01:22.642Z,48.10
2018-06-28T00:02:25.141Z,48.20
2018-06-28T00:03:28.216Z,48.10
2018-06-28T00:04:30.562Z,48.20
2018-06-28T00:05:39.744Z,48.20
2018-06-28T00:06:42.107Z,48.40
2018-06-28T00:07:44.523Z,48.50
2018-06-28T00:08:47.099Z,49.30
2018-06-28T00:09:49.545Z,49.20
2018-06-28T00:10:51.928Z,49.20
2018-06-28T00:11:54.546Z,49.80
2018-06-28T00:12:56.868Z,49.20
2018-06-28T00:13:59.288Z,49.20
2018-06-28T00:15:01.665Z,49.20
2018-06-28T00:16:04.188Z,49.20
2018-06-28T00:18:08.966Z,49.10
2018-06-28T00:19:11.414Z,49.10
2018-06-28T00:20:13.842Z,49.10
2018-06-28T00:21:16.222Z,49.40
2018-06-28T00:22:18.678Z,49.90
2018-06-28T00:23:20.934Z,49.90
2018-06-28T00:24:23.446Z,50.80
2018-06-28T00:25:25.780Z,50.10
2018-06-28T00:26:28.127Z,50.30
2018-06-28T00:27:30.510Z,50.10
2018-06-28T00:28:32.900Z,50.30
2018-06-28T00:29:35.466Z,50.30
2018-06-28T00:30:37.738Z,50.30
2018-06-28T00:31:40.471Z,50.40
2018-06-28T00:32:42.878Z,50.50
2018-06-28T00:34:47.530Z,50.90
2018-06-28T00:35:49.803Z,51.00
2018-06-28T00:36:52.332Z,51.00
2018-06-28T00:38:57.139Z,51.00
2018-06-28T00:39:59.658Z,51.00
2018-06-28T00:41:01.940Z,51.20
2018-06-28T00:42:04.455Z,51.00
2018-06-28T00:44:09.558Z,51.00
2018-06-28T00:45:12.179Z,51.00
2018-06-28T00:46:14.438Z,51.00
2018-06-28T00:47:16.846Z,50.80
2018-06-28T00:48:19.164Z,50.70
2018-06-28T00:49:21.990Z,50.90
2018-06-28T00:50:24.277Z,50.70
2018-06-28T00:52:28.950Z,50.70
2018-06-28T00:53:31.242Z,50.80
2018-06-28T00:54:33.530Z,51.00
2018-06-28T00:55:35.867Z,50.90
2018-06-28T00:56:38.458Z,51.00
2018-06-28T00:57:40.991Z,51.00
2018-06-28T00:58:43.519Z,51.00
2018-06-28T00:59:45.852Z,51.90
2018-06-28T01:01:50.890Z,51.20
2018-06-28T01:02:53.261Z,51.40
2018-06-28T01:03:55.686Z,51.50
2018-06-28T01:04:57.963Z,51.60
2018-06-28T01:06:00.415Z,51.80
2018-06-28T01:07:02.738Z,51.80
2018-06-28T01:08:05.217Z,51.80
2018-06-28T01:09:09.315Z,51.80
2018-06-28T01:10:11.838Z,51.90
2018-06-28T01:11:14.185Z,52.00
2018-06-28T01:12:16.756Z,52.10
2018-06-28T01:13:19.050Z,52.10
2018-06-28T01:15:20.861Z,52.10
2018-06-28T01:16:23.131Z,52.50
2018-06-28T01:17:25.646Z,52.40
2018-06-28T01:18:28.024Z,52.50
2018-06-28T01:19:30.466Z,52.80
2018-06-28T01:20:32.929Z,52.80
2018-06-28T01:21:35.259Z,52.70
2018-06-28T01:22:37.716Z,52.70
2018-06-28T01:23:39.991Z,52.80
2018-06-28T01:24:42.491Z,52.80
2018-06-28T01:25:44.967Z,52.90
2018-06-28T01:26:47.245Z,53.20
2018-06-28T01:27:49.849Z,53.10
2018-06-28T01:28:52.153Z,53.30
2018-06-28T01:29:54.455Z,53.40
2018-06-28T01:30:56.839Z,53.40
2018-06-28T01:31:59.263Z,53.50
2018-06-28T01:33:01.826Z,53.50
2018-06-28T01:34:04.319Z,53.70
2018-06-28T01:35:06.795Z,53.80
2018-06-28T01:36:09.280Z,53.90
2018-06-28T01:37:11.586Z,54.00
2018-06-28T01:38:13.837Z,54.00
2018-06-28T01:39:16.094Z,54.30
2018-06-28T01:40:18.436Z,54.10
2018-06-28T01:41:20.747Z,54.10
2018-06-28T01:43:35.463Z,54.10
2018-06-28T01:44:37.706Z,54.00
2018-06-28T01:45:39.951Z,53.90
2018-06-28T01:46:42.188Z,54.00
2018-06-28T01:47:44.425Z,54.20
2018-06-28T01:48:46.701Z,54.10
2018-06-28T01:50:51.214Z,54.40
2018-06-28T01:51:53.466Z,54.60
2018-06-28T01:52:55.793Z,54.70
2018-06-28T01:53:58.013Z,54.80
2018-06-28T01:55:00.263Z,55.00
2018-06-28T01:57:04.824Z,55.20
2018-06-28T01:58:07.071Z,55.20
2018-06-28T01:59:09.319Z,55.20
2018-06-28T02:00:11.581Z,55.90
2018-06-28T02:01:13.875Z,55.20
2018-06-28T02:02:16.214Z,54.80
2018-06-28T02:03:18.502Z,54.80
2018-06-28T02:04:20.758Z,54.80
2018-06-28T02:05:22.991Z,54.90
2018-06-28T02:06:25.247Z,54.80
2018-06-28T02:07:27.507Z,55.00
2018-06-28T02:08:29.780Z,55.40
2018-06-28T02:09:32.027Z,55.60
2018-06-28T02:10:34.391Z,55.70
2018-06-28T02:11:36.678Z,55.70
2018-06-28T02:12:38.946Z,55.70
2018-06-28T02:13:41.204Z,55.90
2018-06-28T02:14:43.973Z,55.50
2018-06-28T02:15:46.982Z,55.10
2018-06-28T02:16:49.282Z,55.50
2018-06-28T02:17:51.538Z,55.70
2018-06-28T02:18:53.762Z,55.40
2018-06-28T02:19:56.007Z,55.30
2018-06-28T02:20:58.268Z,55.60
2018-06-28T02:22:00.506Z,55.70
2018-06-28T02:23:02.802Z,56.10
2018-06-28T02:24:05.080Z,56.00
2018-06-28T02:25:07.368Z,56.30
2018-06-28T02:26:09.611Z,56.30
2018-06-28T02:27:11.923Z,56.20
2018-06-28T02:28:14.174Z,56.10
2018-06-28T02:29:16.510Z,56.20
2018-06-28T02:30:18.774Z,56.20
2018-06-28T02:31:21.071Z,56.20
2018-06-28T02:32:23.354Z,56.20
2018-06-28T02:33:25.632Z,56.20
2018-06-28T02:34:27.892Z,56.20
2018-06-28T02:35:30.147Z,56.20
2018-06-28T02:36:32.396Z,56.10
2018-06-28T02:37:35.026Z,55.80
2018-06-28T02:38:37.286Z,55.80
2018-06-28T02:39:39.554Z,56.20
2018-06-28T02:40:41.863Z,56.20
2018-06-28T02:41:44.107Z,56.20
2018-06-28T02:42:46.424Z,56.20
2018-06-28T02:43:48.694Z,56.20
2018-06-28T02:44:50.947Z,56.20
2018-06-28T02:45:53.215Z,56.10
2018-06-28T02:46:55.487Z,56.40
2018-06-28T02:47:57.758Z,56.60
2018-06-28T02:49:00.008Z,56.70
2018-06-28T02:50:02.330Z,56.90
2018-06-28T02:51:04.654Z,56.50
2018-06-28T02:52:06.955Z,56.20
2018-06-28T02:53:09.222Z,56.10
2018-06-28T02:54:11.471Z,56.20
2018-06-28T02:55:13.773Z,56.10
2018-06-28T02:56:16.038Z,56.10
2018-06-28T02:57:18.329Z,56.40
2018-06-28T02:58:20.570Z,56.50
2018-06-28T02:59:22.846Z,56.80
2018-06-28T03:00:25.091Z,57.00
2018-06-28T03:01:27.340Z,57.00
2018-06-28T03:02:29.613Z,56.90
2018-06-28T03:03:31.889Z,57.10
2018-06-28T03:04:34.267Z,57.10
2018-06-28T03:05:36.555Z,57.00
2018-06-28T03:06:39.206Z,57.00
2018-06-28T03:07:41.495Z,57.10
2018-06-28T03:08:43.751Z,57.30
2018-06-28T03:09:46.003Z,57.10
2018-06-28T03:10:48.326Z,56.80
2018-06-28T03:11:50.579Z,56.70
2018-06-28T03:12:52.813Z,56.60
2018-06-28T03:13:55.056Z,56.70
2018-06-28T03:14:57.331Z,56.80
2018-06-28T03:15:59.597Z,56.90
2018-06-28T03:18:04.146Z,57.30
2018-06-28T03:19:06.461Z,57.60
2018-06-28T03:20:08.734Z,57.60
2018-06-28T03:21:11.091Z,57.70
2018-06-28T03:22:13.366Z,57.60
2018-06-28T03:23:15.610Z,57.50
2018-06-28T03:24:18.253Z,57.40
2018-06-28T03:25:20.494Z,57.30
2018-06-28T03:26:22.756Z,57.40
2018-06-28T03:27:25.011Z,57.10
2018-06-28T03:28:27.295Z,57.20
2018-06-28T03:29:29.575Z,57.20
2018-06-28T03:30:31.842Z,57.50
2018-06-28T03:31:34.135Z,57.80
2018-06-28T03:32:36.435Z,57.70
2018-06-28T03:33:38.696Z,57.80
2018-06-28T03:34:41.051Z,57.90
2018-06-28T03:35:43.360Z,57.90
2018-06-28T03:36:45.717Z,57.90
2018-06-28T03:37:48.188Z,57.90
2018-06-28T03:38:50.499Z,57.90
2018-06-28T03:39:52.806Z,58.00
2018-06-28T03:40:55.129Z,58.40
2018-06-28T03:41:57.433Z,58.20
2018-06-28T03:42:59.680Z,58.20
2018-06-28T03:44:02.239Z,58.30
2018-06-28T03:45:05.256Z,58.10
2018-06-28T03:46:07.577Z,58.40
2018-06-28T03:47:09.899Z,58.00
2018-06-28T03:48:12.155Z,58.30
2018-06-28T03:49:14.486Z,58.40
2018-06-28T03:50:16.782Z,58.20
2018-06-28T03:51:19.111Z,57.80
2018-06-28T03:52:21.415Z,57.70
2018-06-28T03:53:23.691Z,57.70
2018-06-28T03:54:26.191Z,57.70
2018-06-28T03:55:28.455Z,57.70
2018-06-28T03:56:30.727Z,57.90
2018-06-28T03:57:33.064Z,58.10
2018-06-28T03:58:35.298Z,58.20
2018-06-28T03:59:37.574Z,57.90
2018-06-28T04:00:39.839Z,57.90
2018-06-28T04:01:42.110Z,57.50
2018-06-28T04:02:44.386Z,57.90
2018-06-28T04:03:46.675Z,57.80
2018-06-28T04:04:49.899Z,57.90
2018-06-28T04:05:52.683Z,58.20
2018-06-28T04:06:55.016Z,58.30
2018-06-28T04:07:57.882Z,58.40
2018-06-28T04:09:00.227Z,58.60
2018-06-28T04:10:02.715Z,58.80
2018-06-28T04:11:05.191Z,58.60
2018-06-28T04:12:07.627Z,58.80
2018-06-28T04:13:10.550Z,58.70
2018-06-28T04:14:12.914Z,58.80
2018-06-28T04:15:15.764Z,58.50
2018-06-28T04:16:18.074Z,58.40
2018-06-28T04:17:20.423Z,58.30
2018-06-28T04:18:22.696Z,58.30
2018-06-28T04:19:25.016Z,58.20
2018-06-28T04:20:27.399Z,58.40
2018-06-28T04:22:32.047Z,58.10
2018-06-28T04:23:34.350Z,58.00
2018-06-28T04:25:38.956Z,57.80
2018-06-28T04:26:41.255Z,58.30
2018-06-28T04:27:43.526Z,58.40
2018-06-28T04:29:48.168Z,58.20
2018-06-28T04:30:50.467Z,58.10
2018-06-28T04:31:52.773Z,58.20
2018-06-28T04:32:55.067Z,58.80
2018-06-28T04:33:57.444Z,58.10
2018-06-28T04:34:59.738Z,58.00
2018-06-28T04:37:04.438Z,58.10
2018-06-28T04:38:06.722Z,58.10
2018-06-28T04:39:10.686Z,58.00
2018-06-28T04:40:12.947Z,57.90
2018-06-28T04:41:15.271Z,57.90
2018-06-28T04:42:17.538Z,58.00
2018-06-28T04:43:19.803Z,57.90
2018-06-28T04:44:22.087Z,58.00
2018-06-28T04:45:24.367Z,57.90
2018-06-28T04:46:26.636Z,57.80
2018-06-28T04:47:28.902Z,57.80
2018-06-28T04:48:31.181Z,57.80
2018-06-28T04:49:33.459Z,57.90
2018-06-28T04:50:35.837Z,57.90
2018-06-28T04:51:38.171Z,58.10
2018-06-28T04:52:40.442Z,58.40
2018-06-28T04:53:42.863Z,58.70
2018-06-28T04:54:45.123Z,58.00
2018-06-28T04:55:47.403Z,58.30
2018-06-28T04:56:49.775Z,57.50
2018-06-28T04:57:52.068Z,57.70
2018-06-28T04:58:54.358Z,57.60
2018-06-28T04:59:56.647Z,57.40
2018-06-28T05:00:58.939Z,57.10
2018-06-28T05:02:01.263Z,57.10
2018-06-28T05:03:03.590Z,57.10
2018-06-28T05:04:08.238Z,57.00
2018-06-28T05:05:10.562Z,56.90
2018-06-28T05:06:13.649Z,56.80
2018-06-28T05:07:17.968Z,56.70
2018-06-28T05:08:21.102Z,56.80
2018-06-28T05:09:24.390Z,56.70
2018-06-28T05:11:29.343Z,56.10
2018-06-28T05:12:31.614Z,56.10
2018-06-28T05:13:34.003Z,56.10
2018-06-28T05:15:40.523Z,56.20
2018-06-28T05:16:43.031Z,56.30
2018-06-28T05:17:45.518Z,55.80
2018-06-28T05:18:48.117Z,55.60
2018-06-28T05:19:50.433Z,55.50
2018-06-28T05:20:52.683Z,55.30
2018-06-28T05:21:54.943Z,55.30
2018-06-28T05:22:57.183Z,55.20
2018-06-28T05:23:59.647Z,55.20
2018-06-28T05:25:01.887Z,55.20
2018-06-28T05:26:04.405Z,55.10
2018-06-28T05:28:08.914Z,55.20
2018-06-28T05:29:11.246Z,55.40
2018-06-28T05:30:13.412Z,55.30
2018-06-28T05:31:15.687Z,55.20
2018-06-28T05:32:17.974Z,55.20
2018-06-28T05:34:22.589Z,55.10
2018-06-28T05:35:24.855Z,55.20
2018-06-28T05:36:27.146Z,55.40
2018-06-28T05:37:29.440Z,55.20
2018-06-28T05:38:31.710Z,55.20
2018-06-28T05:39:33.969Z,55.00
2018-06-28T05:40:36.210Z,55.10
2018-06-28T05:41:38.626Z,55.00
2018-06-28T05:42:40.918Z,55.10
2018-06-28T05:43:43.158Z,55.20
2018-06-28T05:44:45.381Z,55.00
2018-06-28T05:46:50.980Z,54.70
2018-06-28T05:47:53.463Z,54.50
2018-06-28T05:48:55.720Z,54.80
2018-06-28T05:49:57.968Z,54.90
2018-06-28T05:51:00.261Z,54.80
2018-06-28T05:52:02.570Z,54.60
2018-06-28T05:54:13.802Z,54.30
2018-06-28T05:55:16.066Z,54.20
2018-06-28T05:56:18.299Z,54.00
2018-06-28T05:57:20.626Z,54.00
2018-06-28T05:58:22.862Z,54.00
2018-06-28T06:00:27.351Z,54.00
2018-06-28T06:01:29.759Z,54.80
2018-06-28T06:02:31.963Z,54.10
2018-06-28T06:03:34.323Z,53.80
2018-06-28T06:04:36.587Z,53.60
2018-06-28T06:05:38.894Z,53.40
2018-06-28T06:07:43.470Z,53.50
2018-06-28T06:08:45.775Z,53.30
2018-06-28T06:09:48.070Z,52.90
2018-06-28T06:10:50.394Z,52.70
2018-06-28T06:11:52.708Z,52.60
2018-06-28T06:12:55.016Z,52.40
2018-06-28T06:14:59.567Z,52.70
2018-06-28T06:16:01.899Z,52.80
2018-06-28T06:17:04.214Z,52.80
2018-06-28T06:18:06.542Z,52.60
2018-06-28T06:19:08.799Z,52.50
2018-06-28T06:20:11.076Z,52.20
2018-06-28T06:21:13.334Z,52.30
2018-06-28T06:22:15.570Z,52.40
2018-06-28T06:23:17.814Z,52.20
2018-06-28T06:24:20.143Z,52.10
2018-06-28T06:25:22.439Z,52.20
2018-06-28T06:27:26.983Z,52.10
2018-06-28T06:28:29.271Z,51.70
2018-06-28T06:29:31.564Z,51.20
2018-06-28T06:30:33.871Z,51.10
2018-06-28T06:31:36.150Z,51.30
2018-06-28T06:32:38.534Z,50.40
2018-06-28T06:33:40.774Z,50.40
2018-06-28T06:34:43.040Z,50.50
2018-06-28T06:35:45.493Z,50.60
2018-06-28T06:36:47.778Z,50.20
2018-06-28T06:37:50.738Z,50.10
2018-06-28T06:38:53.007Z,49.50
2018-06-28T06:39:55.303Z,49.70
2018-06-28T06:40:57.615Z,49.60
2018-06-28T06:41:59.882Z,49.60
2018-06-28T06:43:02.175Z,49.80
2018-06-28T06:44:05.106Z,49.80
2018-06-28T06:45:07.783Z,49.90
2018-06-28T06:46:10.083Z,50.10
2018-06-28T06:47:12.357Z,50.00
2018-06-28T06:49:16.879Z,49.40
2018-06-28T06:50:19.139Z,49.10
2018-06-28T06:52:23.692Z,49.10
2018-06-28T06:53:25.916Z,49.10
2018-06-28T06:55:30.418Z,49.20
2018-06-28T06:56:32.669Z,48.80
2018-06-28T06:57:34.949Z,49.00
2018-06-28T06:58:37.199Z,49.80
2018-06-28T06:59:39.439Z,49.20
2018-06-28T07:00:41.664Z,49.30
2018-06-28T07:01:43.940Z,49.50
2018-06-28T07:02:46.187Z,49.30
2018-06-28T07:03:48.518Z,49.50
2018-06-28T07:04:51.419Z,49.40
2018-06-28T07:05:53.651Z,49.50
2018-06-28T07:07:58.099Z,49.80
2018-06-28T07:09:00.341Z,49.70
2018-06-28T07:10:02.608Z,49.40
2018-06-28T07:11:04.990Z,49.20
2018-06-28T07:12:07.247Z,49.20
2018-06-28T07:13:09.477Z,49.50
2018-06-28T07:14:11.809Z,49.30
2018-06-28T07:15:14.049Z,49.40
2018-06-28T07:16:16.484Z,49.30
2018-06-28T07:18:27.694Z,49.40
2018-06-28T07:19:29.971Z,49.50
2018-06-28T07:20:32.239Z,49.50
2018-06-28T07:21:34.483Z,49.50
2018-06-28T07:22:36.739Z,49.40
2018-06-28T07:23:39.002Z,49.50
2018-06-28T07:24:41.292Z,49.40
2018-06-28T07:25:43.681Z,49.40
2018-06-28T07:26:46.078Z,49.40
2018-06-28T07:27:48.218Z,49.40
2018-06-28T07:28:50.607Z,49.50
2018-06-28T07:29:52.876Z,49.60
2018-06-28T07:30:55.114Z,49.50
2018-06-28T07:31:57.380Z,49.80
2018-06-28T07:32:59.659Z,49.70
2018-06-28T07:34:01.951Z,49.40
2018-06-28T07:35:04.239Z,49.40
2018-06-28T07:36:06.577Z,49.60
2018-06-28T07:37:08.858Z,49.40
2018-06-28T07:38:11.191Z,49.50
2018-06-28T07:39:13.554Z,49.50
2018-06-28T07:40:15.892Z,49.50
2018-06-28T07:42:20.551Z,49.50
2018-06-28T07:43:22.886Z,49.20
2018-06-28T07:44:25.163Z,49.50
2018-06-28T07:45:27.515Z,49.60
2018-06-28T07:46:29.867Z,49.30
2018-06-28T07:47:32.154Z,49.20
2018-06-28T07:48:34.497Z,49.30
2018-06-28T07:50:39.066Z,49.20
2018-06-28T07:51:41.392Z,49.20
2018-06-28T07:52:43.772Z,50.00
2018-06-28T07:53:46.102Z,49.40
2018-06-28T07:54:48.413Z,49.40
2018-06-28T07:55:50.735Z,49.50
2018-06-28T07:56:53.057Z,49.40
2018-06-28T07:57:55.351Z,49.10
2018-06-28T07:58:57.623Z,49.00
2018-06-28T07:59:59.976Z,49.10
2018-06-28T08:01:02.273Z,49.30
2018-06-28T08:02:04.591Z,49.20
2018-06-28T08:04:09.393Z,49.50
2018-06-28T08:05:11.559Z,49.50
2018-06-28T08:06:13.847Z,49.60
2018-06-28T08:07:16.144Z,49.70
2018-06-28T08:08:18.430Z,49.50
2018-06-28T08:09:20.731Z,49.40
2018-06-28T08:10:22.966Z,48.80
2018-06-28T08:11:25.229Z,48.20
2018-06-28T08:13:30.002Z,48.40
2018-06-28T08:14:32.202Z,48.00
2018-06-28T08:15:34.434Z,47.80
2018-06-28T08:16:36.645Z,47.70
2018-06-28T08:17:38.962Z,48.00
2018-06-28T08:18:41.209Z,48.20
2018-06-28T08:19:43.438Z,48.00
2018-06-28T08:20:45.628Z,47.90
2018-06-28T08:21:47.994Z,47.90
2018-06-28T08:22:50.228Z,47.90
2018-06-28T08:24:54.850Z,47.90
2018-06-28T08:25:57.127Z,47.90
2018-06-28T08:26:59.519Z,48.00
2018-06-28T08:28:01.703Z,47.90
2018-06-28T08:29:04.056Z,48.00
2018-06-28T08:30:06.274Z,48.00
2018-06-28T08:31:08.583Z,48.00
2018-06-28T08:33:13.066Z,47.70
2018-06-28T08:34:15.291Z,47.60
2018-06-28T08:35:17.551Z,47.50
2018-06-28T08:36:19.774Z,47.50
2018-06-28T08:38:24.289Z,47.60
2018-06-28T08:39:26.734Z,47.40
2018-06-28T08:40:28.968Z,47.00
2018-06-28T08:41:31.182Z,47.20
2018-06-28T08:42:33.362Z,47.10
2018-06-28T08:43:35.562Z,47.30
2018-06-28T08:44:37.847Z,47.40
2018-06-28T08:45:40.083Z,47.60
2018-06-28T08:46:42.287Z,47.10
2018-06-28T08:47:44.499Z,47.40
2018-06-28T08:48:46.693Z,47.30
2018-06-28T08:49:48.887Z,47.50
2018-06-28T08:51:53.389Z,48.00
2018-06-28T08:52:55.611Z,47.90
2018-06-28T08:53:57.854Z,47.70
2018-06-28T08:55:00.129Z,48.70
2018-06-28T08:56:02.433Z,47.90
2018-06-28T08:57:04.682Z,47.90
2018-06-28T08:58:06.949Z,47.90
2018-06-28T08:59:09.137Z,47.90
2018-06-28T09:00:11.427Z,47.90
2018-06-28T09:01:13.678Z,47.90
2018-06-28T09:02:15.956Z,47.90
2018-06-28T09:03:18.158Z,47.90
2018-06-28T09:04:20.381Z,47.90
2018-06-28T09:05:22.612Z,47.90
2018-06-28T09:06:24.863Z,47.90
2018-06-28T09:07:27.094Z,47.80
2018-06-28T09:08:29.338Z,47.90
2018-06-28T09:10:33.791Z,47.90
2018-06-28T09:11:36.030Z,47.90
2018-06-28T09:12:38.245Z,48.00
2018-06-28T09:13:40.470Z,48.00
2018-06-28T09:14:42.690Z,48.00
2018-06-28T09:15:44.934Z,47.80
2018-06-28T09:16:47.178Z,47.90
2018-06-28T09:17:49.412Z,47.70
2018-06-28T09:18:51.710Z,47.50
2018-06-28T09:20:56.219Z,47.70
2018-06-28T09:21:58.443Z,47.30
2018-06-28T09:23:00.709Z,47.30
2018-06-28T09:24:02.965Z,47.40
2018-06-28T09:25:05.511Z,47.20
2018-06-28T09:26:07.746Z,47.20
2018-06-28T09:27:09.954Z,47.10
2018-06-28T09:28:12.603Z,47.10
2018-06-28T09:29:14.830Z,47.30
2018-06-28T09:30:17.030Z,47.30
2018-06-28T09:31:19.278Z,47.20
2018-06-28T09:32:21.511Z,47.10
2018-06-28T09:34:25.983Z,46.70
2018-06-28T09:35:28.182Z,46.80
2018-06-28T09:36:31.040Z,46.60
2018-06-28T09:37:33.321Z,47.50
2018-06-28T09:39:37.757Z,46.50
2018-06-28T09:40:39.975Z,46.30
2018-06-28T09:41:42.210Z,46.70
2018-06-28T09:42:44.449Z,46.70
2018-06-28T09:43:46.715Z,47.10
2018-06-28T09:44:48.923Z,46.90
2018-06-28T09:45:51.129Z,47.00
2018-06-28T09:46:53.413Z,46.80
2018-06-28T09:47:55.626Z,46.60
2018-06-28T09:48:57.862Z,46.40
2018-06-28T09:50:00.111Z,45.80
2018-06-28T09:51:02.350Z,46.40
2018-06-28T09:52:04.665Z,46.50
2018-06-28T09:53:06.875Z,46.50
2018-06-28T09:54:09.118Z,46.00
2018-06-28T09:55:11.335Z,46.30
2018-06-28T09:56:13.538Z,45.70
2018-06-28T09:57:15.785Z,45.70
2018-06-28T09:58:17.994Z,45.80
2018-06-28T09:59:20.209Z,45.80
2018-06-28T10:00:28.233Z,45.30
2018-06-28T10:01:30.386Z,45.40
2018-06-28T10:02:32.584Z,44.80
2018-06-28T10:03:34.806Z,44.90
2018-06-28T10:04:37.050Z,44.90
2018-06-28T10:05:39.281Z,44.40
2018-06-28T10:06:41.502Z,45.10
2018-06-28T10:07:43.708Z,44.90
2018-06-28T10:08:45.919Z,44.40
2018-06-28T10:09:48.152Z,44.40
2018-06-28T10:10:50.395Z,44.40
2018-06-28T10:11:52.594Z,44.40
2018-06-28T10:12:54.819Z,44.40
2018-06-28T10:13:57.056Z,44.30
2018-06-28T10:14:59.257Z,44.30
2018-06-28T10:16:01.477Z,44.40
2018-06-28T10:17:04.072Z,44.60
2018-06-28T10:18:06.107Z,44.60
2018-06-28T10:20:10.525Z,44.40
2018-06-28T10:21:12.778Z,45.50
2018-06-28T10:22:15.016Z,45.50
2018-06-28T10:23:17.252Z,44.80
2018-06-28T10:25:21.795Z,44.50
2018-06-28T10:26:24.023Z,44.40
2018-06-28T10:28:28.506Z,44.00
2018-06-28T10:29:30.761Z,44.30
2018-06-28T10:30:33.009Z,44.30
2018-06-28T10:31:35.211Z,45.00
2018-06-28T10:32:37.477Z,44.30
2018-06-28T10:33:39.701Z,44.20
2018-06-28T10:34:41.918Z,44.20
2018-06-28T10:35:44.170Z,44.20
2018-06-28T10:36:46.432Z,44.20
2018-06-28T10:38:50.894Z,44.40
2018-06-28T10:39:53.150Z,44.50
2018-06-28T10:41:57.686Z,44.70
2018-06-28T10:42:59.918Z,44.70
2018-06-28T10:44:02.399Z,44.90
2018-06-28T10:45:04.651Z,45.10
2018-06-28T10:46:06.911Z,45.00
2018-06-28T10:47:09.146Z,45.00
2018-06-28T10:48:11.370Z,45.20
2018-06-28T10:49:13.604Z,45.30
2018-06-28T10:50:15.858Z,45.20
2018-06-28T10:51:18.201Z,45.20
2018-06-28T10:52:20.545Z,45.30
2018-06-28T10:53:22.780Z,45.40
2018-06-28T10:54:25.070Z,45.40
2018-06-28T10:55:27.323Z,45.70
2018-06-28T10:56:29.633Z,45.70
2018-06-28T10:57:31.861Z,46.00
2018-06-28T10:58:34.101Z,46.10
2018-06-28T10:59:36.380Z,46.10
2018-06-28T11:00:38.592Z,47.10
2018-06-28T11:01:41.032Z,46.40
2018-06-28T11:02:43.206Z,46.70
2018-06-28T11:03:45.454Z,46.90
2018-06-28T11:04:47.683Z,47.20
2018-06-28T11:05:49.917Z,48.10
2018-06-28T11:06:52.760Z,48.20
2018-06-28T11:07:55.022Z,48.80
2018-06-28T11:08:57.298Z,49.00
2018-06-28T11:09:59.524Z,50.30
2018-06-28T11:11:01.795Z,50.50
2018-06-28T11:12:04.102Z,50.50
2018-06-28T11:13:06.344Z,50.20
2018-06-28T11:15:10.840Z,50.70
2018-06-28T11:16:13.048Z,50.80
2018-06-28T11:17:15.293Z,51.00
2018-06-28T11:18:24.486Z,50.80
2018-06-28T11:19:26.731Z,51.90
2018-06-28T11:20:29.139Z,51.60
2018-06-28T11:21:31.519Z,51.40
2018-06-28T11:22:33.726Z,52.00
2018-06-28T11:23:35.971Z,52.00
2018-06-28T11:24:38.199Z,52.00
2018-06-28T11:25:40.444Z,52.00
2018-06-28T11:26:42.667Z,52.00
2018-06-28T11:27:44.876Z,52.00
2018-06-28T11:28:47.094Z,52.00
2018-06-28T11:29:49.331Z,52.20
2018-06-28T11:30:51.567Z,52.80
2018-06-28T11:31:53.827Z,52.70
2018-06-28T11:32:56.043Z,52.90
2018-06-28T11:33:58.364Z,53.10
2018-06-28T11:35:00.562Z,52.70
2018-06-28T11:36:02.848Z,52.80
2018-06-28T11:37:05.262Z,53.20
2018-06-28T11:38:07.525Z,52.80
2018-06-28T11:39:10.574Z,52.60
2018-06-28T11:40:12.874Z,53.40
2018-06-28T11:41:15.146Z,53.50
2018-06-28T11:42:17.419Z,53.30
2018-06-28T11:43:19.658Z,53.30
2018-06-28T11:44:21.898Z,53.30
2018-06-28T11:45:24.273Z,53.30
2018-06-28T11:46:26.546Z,53.60
2018-06-28T11:48:31.066Z,54.10
2018-06-28T11:49:40.066Z,54.00
2018-06-28T11:50:42.323Z,53.70
2018-06-28T11:51:44.614Z,54.10
2018-06-28T11:52:46.941Z,54.60
2018-06-28T11:53:49.169Z,54.50
2018-06-28T11:54:51.427Z,54.20
2018-06-28T11:55:53.805Z,54.50
2018-06-28T11:56:56.101Z,54.60
2018-06-28T11:57:58.404Z,54.60
2018-06-28T11:59:00.907Z,54.40
2018-06-28T12:00:03.734Z,54.10
2018-06-28T12:01:06.015Z,53.90
2018-06-28T12:02:08.262Z,54.00
2018-06-28T12:03:10.502Z,53.70
2018-06-28T12:05:14.979Z,54.20
2018-06-28T12:06:17.318Z,53.60
2018-06-28T12:07:19.552Z,53.80
2018-06-28T12:08:21.895Z,53.90
2018-06-28T12:09:31.100Z,54.10
2018-06-28T12:10:33.338Z,54.20
2018-06-28T12:11:35.603Z,54.40
2018-06-28T12:12:37.819Z,54.50
2018-06-28T12:13:40.094Z,54.40
2018-06-28T12:14:42.343Z,53.90
2018-06-28T12:15:44.594Z,53.70
2018-06-28T12:16:46.867Z,53.50
2018-06-28T12:17:49.932Z,54.00
2018-06-28T12:19:54.759Z,54.00
2018-06-28T12:20:56.970Z,54.10
2018-06-28T12:21:59.222Z,54.10
2018-06-28T12:23:01.578Z,54.50
2018-06-28T12:24:03.842Z,54.80
2018-06-28T12:25:06.195Z,55.10
2018-06-28T12:26:08.431Z,55.40
2018-06-28T12:27:10.744Z,55.50
2018-06-28T12:28:12.977Z,56.10
2018-06-28T12:29:15.350Z,56.10
2018-06-28T12:30:17.598Z,56.10
2018-06-28T12:31:19.895Z,55.70
2018-06-28T12:32:22.288Z,55.50
2018-06-28T12:33:24.600Z,55.80
2018-06-28T12:34:27.018Z,55.80
2018-06-28T12:35:29.290Z,56.00
2018-06-28T12:36:31.627Z,56.30
2018-06-28T12:37:33.927Z,55.60
2018-06-28T12:38:36.232Z,54.70
2018-06-28T12:39:38.680Z,54.80
2018-06-28T12:40:40.914Z,55.30
2018-06-28T12:41:43.271Z,56.10
2018-06-28T12:42:45.507Z,55.40
2018-06-28T12:43:47.881Z,55.60
2018-06-28T12:44:50.252Z,54.80
2018-06-28T12:45:52.594Z,55.20
2018-06-28T12:49:01.950Z,55.20
2018-06-28T12:50:04.961Z,55.20
2018-06-28T12:51:07.306Z,54.70
2018-06-28T12:52:21.034Z,55.20
2018-06-28T12:53:23.378Z,55.20
2018-06-28T12:54:25.827Z,56.20
2018-06-28T12:55:39.822Z,55.70
2018-06-28T12:56:43.429Z,56.10
2018-06-28T12:57:46.367Z,56.30
2018-06-28T12:59:52.635Z,56.20
2018-06-28T13:00:54.884Z,57.00
2018-06-28T13:01:57.133Z,56.20
2018-06-28T13:03:00.133Z,56.60
2018-06-28T13:04:02.526Z,57.10
2018-06-28T13:05:04.975Z,57.00
2018-06-28T13:06:07.260Z,56.20
2018-06-28T13:07:09.717Z,56.50
2018-06-28T13:08:11.946Z,56.40
2018-06-28T13:09:16.340Z,56.70
2018-06-28T13:10:18.673Z,56.40
2018-06-28T13:11:21.306Z,56.10
2018-06-28T13:12:23.526Z,56.70
2018-06-28T13:13:25.771Z,56.30
2018-06-28T13:14:28.034Z,56.50
2018-06-28T13:15:30.256Z,56.40
2018-06-28T13:16:32.554Z,56.00
2018-06-28T13:17:34.809Z,56.00
2018-06-28T13:18:37.142Z,56.10
2018-06-28T13:20:41.600Z,56.20
2018-06-28T13:21:44.039Z,56.40
2018-06-28T13:22:46.343Z,56.40
2018-06-28T13:23:48.718Z,56.60
2018-06-28T13:24:51.081Z,56.70
2018-06-28T13:25:53.545Z,56.80
2018-06-28T13:26:55.871Z,56.60
2018-06-28T13:27:58.359Z,56.80
2018-06-28T13:29:00.622Z,56.50
2018-06-28T13:30:04.565Z,56.10
2018-06-28T13:31:07.055Z,56.00
2018-06-28T13:32:09.315Z,56.00
2018-06-28T13:33:11.626Z,56.40
2018-06-28T13:34:13.866Z,56.50
2018-06-28T13:35:16.245Z,56.80
2018-06-28T13:36:18.743Z,56.70
2018-06-28T13:37:21.020Z,56.50
2018-06-28T13:38:23.731Z,56.30
2018-06-28T13:39:26.143Z,57.00
2018-06-28T13:41:31.460Z,56.70
2018-06-28T13:42:33.348Z,56.70
2018-06-28T13:43:35.650Z,56.40
2018-06-28T13:44:37.877Z,56.00
2018-06-28T13:45:40.146Z,56.60
2018-06-28T13:46:42.403Z,56.60
2018-06-28T13:47:44.649Z,56.50
2018-06-28T13:48:46.890Z,56.60
2018-06-28T13:49:49.175Z,56.80
2018-06-28T13:50:52.028Z,56.70
2018-06-28T13:51:54.281Z,56.40
2018-06-28T13:52:57.258Z,56.30
2018-06-28T13:53:59.525Z,57.10
2018-06-28T13:56:04.393Z,56.50
2018-06-28T13:57:06.694Z,56.30
2018-06-28T13:58:08.967Z,56.30
2018-06-28T13:59:11.214Z,56.40
2018-06-28T14:00:13.519Z,56.00
2018-06-28T14:01:15.742Z,55.80
2018-06-28T14:02:18.026Z,55.90
2018-06-28T14:03:20.381Z,56.20
2018-06-28T14:04:22.552Z,55.80
2018-06-28T14:05:24.859Z,55.80
2018-06-28T14:06:27.143Z,56.00
2018-06-28T14:07:29.447Z,56.00
2018-06-28T14:08:31.749Z,55.70
2018-06-28T14:10:36.599Z,55.10
2018-06-28T14:11:38.923Z,54.80
2018-06-28T14:12:41.142Z,54.80
2018-06-28T14:13:43.414Z,54.50
2018-06-28T14:14:45.710Z,54.50
2018-06-28T14:15:47.982Z,54.30
2018-06-28T14:16:50.233Z,54.20
2018-06-28T14:17:52.786Z,54.30
2018-06-28T14:18:55.222Z,54.70
2018-06-28T14:19:57.494Z,54.90
2018-06-28T14:20:59.768Z,54.70
2018-06-28T14:22:02.096Z,54.80
2018-06-28T14:23:04.298Z,54.90
2018-06-28T14:24:06.621Z,54.90